METAR Data
IDs: Format: Raw Decoded Include TAF

Data at: 1242 UTC 15 Jul 2020

METAR for:EBBE (Beauvechain(AB), --, BX)
Text:EBBE 151225Z 24003KT 9999 FEW040 SCT055 19/10 Q1015 BLU BLU
Temperature: 19.0°C ( 66°F)
Dewpoint: 10.0°C ( 50°F) [RH = 56%]
Pressure (altimeter):29.97 inches Hg (1015.0 mb)
Winds:from the WSW (240 degrees) at 3 MPH (3 knots; 1.5 m/s)
Visibility:6 or more sm (10+ km)
Ceiling:at least 12,000 feet AGL
Clouds: few clouds at 4000 feet AGL, scattered clouds at 5500 feet AGL

TAF for:EBBE (Beauvechain(AB), --, BX) issued at 1141 UTC 15 Jul 2020
Text:TAF EBBE 151141Z 1513/1522 VRB03KT 9999 FEW035 SCT055
Forecast period:1300 to 2200 UTC 15 July 2020
Forecast type:FROM: standard forecast or significant change
Winds:variable direction winds at 3 MPH (3 knots; 1.5 m/s)
Visibility:6 or more sm (10+ km)
Ceiling:at least 12,000 feet AGL
Clouds: few clouds at 3500 feet AGL, scattered clouds at 5500 feet AGL
Text:PROB30
Forecast period:1300 to 1800 UTC 15 July 2020
Forecast type:TEMPORARY: The following changes expected for less than half the time period
Visibility: 4 sm ( 7 km)
Ceiling:5000 feet AGL
Clouds: scattered clouds at 3500 feet AGL, broken clouds at 5000 feet AGL
Weather:-SHRA (light rain showers)